KHRT

Hurlburt Field Airport

Mary Esther, Florida, USA
METAR KHRT 181311Z AUTO 28007KT 10SM FEW005 OVC017 17/16 A3009 RMK AO2 SLP191 $
Observed Flight Rules
Jan-18 @ 13:11 UTC (39 minutes ago) Marginal Visual Flight Rules
Wind Visibility Clouds
280° at 7 knots 10 miles
  • Few at 500' AGL
  • Overcast at 1,700' AGL
Temperatures Readings
Current 17°C / 63°F
Dewpoint 16°C / 61°F
Humidity 94%
Altimeter 30.09" Hg
Pressure 1019.1 hPa
Elevation 12
METAR KHRT 181311Z AUTO 28007KT 10SM FEW005 OVC017 17/16 A3009 RMK AO2 SLP191 $
Observed Flight Rules
Jan-18 @ 13:11 UTC
(39 minutes ago)
MVFR
Wind Visibility
280° at 7 knots 10 miles
Clouds
  • Few at 500' AGL
  • Overcast at 1,700' AGL
Temperature Dewpoint
17°C / 63°F 16°C / 61°F
Humidity Altimeter Pressure
94% 30.09" Hg 1019.1 hPa